This is the latest recevied weather packets stored in our database for station/object KP3M-5. If no packets are shown the sender has not sent any weather packets the latest 10 day(s).
| Time | Temp. | Humidity | Pressure | Rain* | Wind** | Luminosity | Snow |
|---|---|---|---|---|---|---|---|
| 1778238304 | 21.11° C | 89% | 1024 hPa | - | - | - | - |
| 1778234704 | 20.56° C | 90% | 1024 hPa | - | - | - | - |
| 1778231104 | 20.56° C | 90% | 1024 hPa | - | - | - | - |
| 1778227503 | 21.11° C | 90% | 1024 hPa | - | - | - | - |
| 1778191504 | 24.44° C | 85% | 1024 hPa | - | - | - | - |
| 1778187904 | 25.56° C | 82% | 1024 hPa | - | - | - | - |
| 1778184304 | 26.67° C | 78% | 1024 hPa | - | - | - | - |
| 1778180704 | 26.67° C | 77% | 1024 hPa | - | - | - | - |
| 1778177104 | 27.78° C | 74% | 1024 hPa | - | - | - | - |
| 1778173503 | 27.78° C | 73% | 1024 hPa | - | - | - | - |
| 1778169905 | 27.22° C | 75% | 1024 hPa | - | - | - | - |
| 1778166304 | 26.67° C | 77% | 1024 hPa | - | - | - | - |
| 1778162704 | 26.11° C | 79% | 1024 hPa | - | - | - | - |
| 1778159105 | 25° C | 82% | 1024 hPa | - | - | - | - |
| 1778155505 | 23.89° C | 87% | 1024 hPa | - | - | - | - |
| 1778151904 | 22.22° C | 90% | 1024 hPa | - | - | - | - |
| 1778148304 | 21.67° C | 90% | 1024 hPa | - | - | - | - |
| 1778144705 | 22.22° C | 89% | 1024 hPa | - | - | - | - |
| 1778141104 | 22.22° C | 87% | 1024 hPa | - | - | - | - |
| 1778105104 | 26.11° C | 76% | 1024 hPa | - | - | - | - |
| 1778101504 | 27.22° C | 70% | 1024 hPa | - | - | - | - |
| 1778097904 | 27.78° C | 69% | 1024 hPa | - | - | - | - |
| 1778094305 | 28.33° C | 67% | 1024 hPa | - | - | - | - |
| 1778090704 | 28.33° C | 68% | 1024 hPa | - | - | - | - |
| 1778087104 | 28.33° C | 68% | 1024 hPa | - | - | - | - |
* Rain since midnight (hover to see other rain measurements)
** Current wind speed in m/s (hover to see current wind gust speed)